Time;durP1;ratioP1;P1;durP2;ratioP2;P2;SDS_P1;SDS_P2;PMS_P1;PMS_P2;Temp;Humidity;BMP_temperature;BMP_pressure;BME280_temperature;BME280_humidity;BME280_pressure;Samples;Min_cycle;Max_cycle;Signal;HPM_P1;HPM_P2
2022/06/22 00:00:35;;;;;;;5.18;4.68;;;;;;;22.25;75.15;95312.97;5012096;28;20206;-82
2022/06/22 00:03:02;;;;;;;5.00;4.50;;;;;;;22.14;74.63;95303.47;5012159;28;20293;-82
2022/06/22 00:05:34;;;;;;;4.90;4.43;;;;;;;22.01;74.52;95282.94;5012941;28;20199;-82
2022/06/22 00:08:06;;;;;;;4.47;4.03;;;;;;;21.87;75.42;95289.66;5012328;28;20276;-82
2022/06/22 00:10:37;;;;;;;4.88;4.38;;;;;;;21.85;74.97;95283.88;5012755;28;20198;-82
2022/06/22 00:13:05;;;;;;;4.70;4.00;;;;;;;21.83;75.67;95284.16;5012037;28;20238;-82
2022/06/22 00:15:35;;;;;;;4.35;4.03;;;;;;;21.86;73.89;95259.25;5012998;28;20207;-82
2022/06/22 00:18:04;;;;;;;4.47;4.07;;;;;;;21.80;73.51;95247.94;5013046;28;20617;-82
2022/06/22 00:20:33;;;;;;;5.53;4.20;;;;;;;21.74;72.06;95232.47;5011914;28;20672;-82
2022/06/22 00:23:19;;;;;;;4.97;4.05;;;;;;;21.59;75.12;95231.31;5022120;28;20233;-82
2022/06/22 00:25:46;;;;;;;5.65;4.10;;;;;;;21.50;73.98;95230.25;5032827;28;20210;-82
2022/06/22 00:28:26;;;;;;;4.47;4.07;;;;;;;21.63;73.85;95210.66;5033266;28;20313;-81
2022/06/22 00:31:00;;;;;;;7.03;4.28;;;;;;;21.71;73.37;95203.13;5031862;28;20260;-82
2022/06/22 00:33:26;;;;;;;6.13;3.90;;;;;;;21.79;71.82;95191.34;5018853;28;20710;-82
2022/06/22 00:35:56;;;;;;;4.28;3.83;;;;;;;21.84;70.96;95199.22;5013344;28;20234;-82
2022/06/22 00:38:29;;;;;;;4.80;3.97;;;;;;;21.88;71.37;95200.28;5016390;28;20262;-82
2022/06/22 00:40:58;;;;;;;4.60;4.07;;;;;;;21.89;71.81;95191.38;5015890;28;20199;-82
2022/06/22 00:43:29;;;;;;;4.53;4.13;;;;;;;21.97;70.38;95176.97;5015639;28;20234;-82
2022/06/22 00:45:57;;;;;;;4.65;3.80;;;;;;;21.95;70.58;95177.22;5016571;28;20202;-82
2022/06/22 00:48:29;;;;;;;5.85;4.00;;;;;;;22.02;70.51;95179.66;5016090;28;20253;-82
2022/06/22 00:51:00;;;;;;;4.68;3.90;;;;;;;22.06;70.64;95172.84;5015378;28;20199;-82
2022/06/22 00:53:34;;;;;;;4.45;4.05;;;;;;;22.05;71.18;95177.31;5015535;28;20288;-82
2022/06/22 00:56:09;;;;;;;5.85;4.20;;;;;;;22.02;71.11;95169.16;5015709;28;20630;-82
2022/06/22 00:58:44;;;;;;;4.30;3.90;;;;;;;22.00;70.74;95160.78;5016296;28;20213;-81
2022/06/22 01:01:20;;;;;;;4.95;4.55;;;;;;;21.93;72.25;95161.00;5015130;28;20285;-82
2022/06/22 01:03:54;;;;;;;4.65;4.18;;;;;;;22.00;71.77;95164.19;5015060;28;20226;-82
2022/06/22 01:06:28;;;;;;;6.30;4.38;;;;;;;22.02;72.03;95171.78;5015730;28;20206;-82
2022/06/22 01:09:03;;;;;;;4.68;4.28;;;;;;;22.12;71.61;95171.03;5015842;28;20277;-81
2022/06/22 01:14:23;;;;;;;6.15;4.45;;;;;;;22.10;72.76;95167.88;5016028;28;20268;-82
2022/06/22 01:16:54;;;;;;;4.65;4.25;;;;;;;22.09;72.91;95159.22;5015583;28;20268;-82
2022/06/22 01:19:37;;;;;;;5.95;4.65;;;;;;;22.05;73.78;95143.22;5015831;28;20235;-82
2022/06/22 01:22:19;;;;;;;4.95;4.55;;;;;;;22.03;73.69;95147.94;5014658;28;20222;-82
2022/06/22 01:24:57;;;;;;;5.10;4.57;;;;;;;22.07;73.24;95140.34;5015957;28;20261;-82
2022/06/22 01:27:31;;;;;;;5.20;4.70;;;;;;;22.07;73.39;95145.59;5015652;28;20222;-82
2022/06/22 01:30:00;;;;;;;5.78;4.63;;;;;;;22.02;73.64;95135.88;5014566;28;20206;-84
2022/06/22 01:32:29;;;;;;;6.70;5.03;;;;;;;22.04;73.72;95136.41;5013880;28;20227;-85
2022/06/22 01:34:58;;;;;;;6.13;4.68;;;;;;;22.04;73.33;95133.00;5014450;28;20199;-84
2022/06/22 01:37:27;;;;;;;7.40;4.45;;;;;;;22.03;73.38;95129.59;5015279;28;20203;-85
2022/06/22 01:39:59;;;;;;;5.00;4.60;;;;;;;22.00;74.17;95121.44;5014392;28;20203;-84
2022/06/22 01:42:33;;;;;;;4.90;4.38;;;;;;;22.02;74.48;95128.00;5014271;28;20231;-82
2022/06/22 01:45:05;;;;;;;5.65;4.63;;;;;;;21.96;74.49;95118.50;5015331;28;20209;-82
2022/06/22 01:47:41;;;;;;;5.07;4.68;;;;;;;21.96;74.45;95128.22;5015027;28;20296;-81
2022/06/22 01:50:15;;;;;;;5.60;4.32;;;;;;;21.87;75.33;95122.69;5015467;28;20207;-82
2022/06/22 01:52:51;;;;;;;4.85;4.45;;;;;;;21.89;75.40;95120.63;5015006;28;20241;-82
2022/06/22 01:55:27;;;;;;;4.70;4.30;;;;;;;21.97;74.48;95106.97;5015110;28;20747;-82
2022/06/22 01:58:03;;;;;;;5.10;4.60;;;;;;;22.05;74.37;95113.59;5014828;28;20194;-82
2022/06/22 02:00:29;;;;;;;5.13;4.60;;;;;;;22.00;74.90;95103.88;5014844;28;20715;-82
2022/06/22 02:03:02;;;;;;;5.03;4.63;;;;;;;22.02;74.87;95101.00;5014246;28;20857;-82
2022/06/22 02:05:34;;;;;;;5.85;4.50;;;;;;;22.02;74.89;95099.16;4995287;28;20291;-82
2022/06/22 02:08:06;;;;;;;4.70;4.30;;;;;;;22.09;74.45;95104.16;4994745;28;20227;-82
2022/06/22 02:10:44;;;;;;;4.63;4.22;;;;;;;22.09;74.70;95098.91;4994185;28;20207;-82
2022/06/22 02:13:25;;;;;;;5.53;4.45;;;;;;;22.04;75.05;95098.91;4994218;28;20845;-82
2022/06/22 02:15:57;;;;;;;6.80;4.45;;;;;;;22.06;74.95;95104.69;4995455;28;20211;-82
2022/06/22 02:18:30;;;;;;;4.95;4.55;;;;;;;22.05;74.67;95106.50;4994147;28;20211;-82
2022/06/22 02:20:59;;;;;;;4.82;4.32;;;;;;;22.09;74.88;95121.72;4994203;28;20262;-81
2022/06/22 02:23:29;;;;;;;4.55;4.07;;;;;;;22.11;74.09;95115.19;5006592;28;20726;-82
2022/06/22 02:26:05;;;;;;;5.40;4.03;;;;;;;22.16;73.89;95117.00;5014421;28;20570;-82
2022/06/22 02:28:33;;;;;;;4.85;4.32;;;;;;;22.14;73.86;95119.88;5014432;28;20230;-81
2022/06/22 02:31:00;;;;;;;5.63;4.28;;;;;;;22.18;73.14;95120.94;5023609;28;20685;-82
2022/06/22 02:33:28;;;;;;;4.93;4.43;;;;;;;22.16;73.73;95117.78;5019660;28;20300;-82
2022/06/22 02:35:56;;;;;;;4.20;3.80;;;;;;;22.17;73.21;95114.13;5014142;28;20211;-82
2022/06/22 02:38:22;;;;;;;7.75;4.13;;;;;;;22.11;73.37;95117.03;5014410;28;20670;-82
2022/06/22 02:46:25;;;;;;;5.07;3.70;;;;;;;22.11;72.90;95103.91;5013371;28;20218;-82
2022/06/22 02:48:55;;;;;;;5.68;4.10;;;;;;;22.00;72.92;95088.16;5013541;28;20227;-82
2022/06/22 02:51:26;;;;;;;4.15;3.75;;;;;;;22.00;73.20;95085.53;5012346;28;20634;-81
2022/06/22 02:53:55;;;;;;;5.00;3.78;;;;;;;22.05;72.75;95084.75;5012898;28;20303;-82
2022/06/22 02:56:26;;;;;;;5.63;4.65;;;;;;;22.01;73.02;95084.47;5013493;28;20265;-82
2022/06/22 02:58:54;;;;;;;4.03;3.30;;;;;;;22.11;72.46;95086.34;5012396;28;20202;-82
2022/06/22 03:01:25;;;;;;;5.65;3.70;;;;;;;22.08;72.96;95086.84;5012183;28;20206;-82
2022/06/22 03:03:54;;;;;;;5.78;3.63;;;;;;;22.02;73.31;95086.06;5013186;28;20226;-82
2022/06/22 03:06:22;;;;;;;6.55;3.58;;;;;;;22.02;73.02;95080.03;5013619;28;20207;-82
2022/06/22 03:08:50;;;;;;;4.30;3.38;;;;;;;22.02;72.26;95090.50;5013531;28;20752;-81
2022/06/22 03:11:18;;;;;;;7.18;3.65;;;;;;;21.94;71.89;95088.34;5013372;28;20821;-82
2022/06/22 03:13:49;;;;;;;5.50;3.38;;;;;;;21.95;72.36;95089.94;5013353;28;20302;-82
2022/06/22 03:16:26;;;;;;;5.57;3.38;;;;;;;21.96;71.97;95094.91;5012988;28;20293;-82
2022/06/22 03:18:53;;;;;;;6.68;3.47;;;;;;;22.03;71.89;95087.63;5013086;28;20233;-82
2022/06/22 03:21:20;;;;;;;6.40;3.20;;;;;;;22.01;72.32;95089.72;5012018;28;20691;-81
2022/06/22 03:23:52;;;;;;;3.85;3.05;;;;;;;22.03;72.28;95086.84;5028666;28;20249;-82
2022/06/22 03:26:22;;;;;;;3.78;3.40;;;;;;;22.05;71.61;95088.16;5033329;28;20214;-82
2022/06/22 03:28:52;;;;;;;6.47;3.40;;;;;;;22.04;71.26;95086.59;5032885;28;20572;-82
2022/06/22 03:31:24;;;;;;;4.53;3.17;;;;;;;22.05;71.33;95098.66;5031479;28;20568;-82
2022/06/22 03:33:56;;;;;;;5.97;3.10;;;;;;;22.07;70.73;95094.97;5015531;28;20237;-82
2022/06/22 03:36:32;;;;;;;4.68;3.28;;;;;;;21.96;71.17;95087.06;5012197;28;20199;-81
2022/06/22 03:39:02;;;;;;;5.80;3.17;;;;;;;21.97;71.46;95098.34;5012861;28;20198;-81
2022/06/22 03:41:31;;;;;;;5.68;3.47;;;;;;;22.06;71.00;95107.31;5012021;28;20206;-82
2022/06/22 03:44:01;;;;;;;4.50;3.10;;;;;;;22.09;71.04;95104.16;5012325;28;20234;-81
2022/06/22 03:46:40;;;;;;;4.03;3.28;;;;;;;22.13;70.79;95109.69;5013193;28;20257;-82
2022/06/22 03:49:12;;;;;;;4.53;2.95;;;;;;;22.15;70.36;95110.19;5013227;28;20900;-81
2022/06/22 03:51:44;;;;;;;4.72;3.42;;;;;;;22.13;70.71;95102.56;5011942;28;20869;-81
2022/06/22 03:54:16;;;;;;;4.75;3.10;;;;;;;22.17;70.65;95110.72;5011822;28;20231;-82
2022/06/22 03:56:46;;;;;;;4.57;3.28;;;;;;;22.22;70.64;95111.53;5012572;28;20261;-82
2022/06/22 03:59:13;;;;;;;6.43;3.20;;;;;;;22.24;70.54;95109.44;5012296;28;20207;-81
2022/06/22 04:01:42;;;;;;;3.63;2.97;;;;;;;22.26;70.43;95099.47;5011263;28;20229;-82
2022/06/22 04:04:09;;;;;;;6.70;3.45;;;;;;;22.16;71.47;95101.28;5012110;28;20293;-82
2022/06/22 04:06:40;;;;;;;3.85;3.38;;;;;;;22.15;71.18;95090.00;5012611;28;20203;-81
2022/06/22 04:09:13;;;;;;;5.65;3.45;;;;;;;22.20;71.04;95102.34;5012715;28;20579;-82
2022/06/22 04:11:45;;;;;;;7.65;3.92;;;;;;;22.14;71.59;95109.41;5014990;28;20223;-82
2022/06/22 04:14:16;;;;;;;4.05;3.15;;;;;;;22.21;71.14;95109.94;5015860;28;20261;-82
2022/06/22 04:16:49;;;;;;;4.45;3.50;;;;;;;22.22;70.77;95108.09;5016314;28;20203;-82
2022/06/22 04:19:21;;;;;;;6.28;3.70;;;;;;;22.08;73.33;95113.06;5016276;28;20574;-82
2022/06/22 04:21:51;;;;;;;6.75;3.20;;;;;;;22.15;71.61;95123.28;5015565;28;20230;-82
2022/06/22 04:24:22;;;;;;;5.22;3.08;;;;;;;22.20;72.50;95118.06;5035030;28;20225;-85
2022/06/22 04:26:53;;;;;;;5.68;3.55;;;;;;;22.38;71.64;95115.72;5033031;28;20202;-85
2022/06/22 04:29:34;;;;;;;6.78;3.38;;;;;;;22.60;70.55;95122.56;5033739;28;20275;-84
2022/06/22 04:32:07;;;;;;;6.13;3.35;;;;;;;22.64;70.24;95113.13;5036745;28;20233;-84
2022/06/22 04:34:40;;;;;;;4.47;3.08;;;;;;;22.71;70.30;95108.38;5020616;28;20229;-84
2022/06/22 04:37:22;;;;;;;7.85;3.25;;;;;;;22.77;70.20;95109.16;5017973;28;20202;-83
2022/06/22 04:39:53;;;;;;;7.53;3.00;;;;;;;23.02;68.48;95106.53;5020092;28;20199;-82
2022/06/22 04:42:20;;;;;;;4.00;3.10;;;;;;;23.24;67.72;95103.59;5015783;28;20652;-82
2022/06/22 04:44:49;;;;;;;5.38;3.92;;;;;;;23.21;67.79;95102.28;5017409;28;20203;-82
2022/06/22 04:47:22;;;;;;;7.88;3.40;;;;;;;23.26;67.76;95110.16;5015957;28;20257;-82
2022/06/22 04:49:53;;;;;;;7.70;3.25;;;;;;;23.41;67.30;95127.72;5016788;28;20222;-82
2022/06/22 04:52:25;;;;;;;6.00;3.15;;;;;;;23.55;67.43;95122.69;5016670;28;20233;-82
2022/06/22 04:54:55;;;;;;;4.35;3.03;;;;;;;23.68;66.83;95127.34;5035055;28;20194;-85
2022/06/22 04:57:25;;;;;;;5.32;3.38;;;;;;;23.81;66.45;95133.88;5035383;28;20256;-84
2022/06/22 04:59:54;;;;;;;6.25;3.38;;;;;;;23.84;66.09;95146.50;5036053;28;20221;-85
2022/06/22 05:02:26;;;;;;;6.15;3.47;;;;;;;23.79;66.41;95160.44;5034298;28;20233;-85
2022/06/22 05:04:57;;;;;;;4.70;3.10;;;;;;;23.77;66.31;95158.09;5036583;28;20244;-85
2022/06/22 05:07:41;;;;;;;5.80;3.00;;;;;;;23.80;65.95;95153.34;5037198;28;20283;-85
2022/06/22 05:10:16;;;;;;;6.03;3.00;;;;;;;23.85;66.73;95154.13;5034668;28;20280;-85
2022/06/22 05:12:47;;;;;;;6.07;3.05;;;;;;;23.84;66.31;95149.13;5035255;28;20805;-84
2022/06/22 05:15:21;;;;;;;4.22;3.10;;;;;;;23.82;66.69;95148.63;5035868;28;20206;-84
2022/06/22 05:17:49;;;;;;;7.68;3.20;;;;;;;23.87;66.53;95151.97;5035160;28;20709;-85
2022/06/22 05:20:22;;;;;;;5.32;3.55;;;;;;;23.87;67.03;95138.84;5034978;28;20252;-85
2022/06/22 05:22:51;;;;;;;5.10;3.33;;;;;;;23.74;68.11;95132.34;5034657;28;20639;-85
2022/06/22 05:25:22;;;;;;;8.23;3.70;;;;;;;23.71;67.54;95135.50;5035946;28;20209;-84
2022/06/22 05:27:56;;;;;;;4.63;3.35;;;;;;;23.75;67.16;95128.66;5036231;28;20206;-85
2022/06/22 05:30:23;;;;;;;5.10;3.20;;;;;;;23.75;67.45;95127.88;5035764;28;20431;-85
2022/06/22 05:32:55;;;;;;;8.73;5.35;;;;;;;23.75;66.93;95126.03;5034852;28;20256;-82
2022/06/22 05:35:27;;;;;;;6.85;3.80;;;;;;;23.79;66.66;95122.84;5035690;28;20678;-82
2022/06/22 05:37:55;;;;;;;6.05;3.30;;;;;;;23.79;66.22;95109.72;5036608;28;20209;-82
2022/06/22 05:40:24;;;;;;;6.53;3.45;;;;;;;23.79;65.63;95104.44;5035951;28;20206;-82
2022/06/22 05:42:51;;;;;;;7.85;5.07;;;;;;;23.73;65.78;95091.31;5035016;28;20285;-82
2022/06/22 05:45:22;;;;;;;11.88;9.70;;;;;;;23.79;65.43;95102.59;5035432;28;20844;-82
2022/06/22 05:47:53;;;;;;;6.88;5.25;;;;;;;23.86;65.15;95099.69;5035560;28;20598;-82
2022/06/22 05:50:33;;;;;;;11.23;5.30;;;;;;;23.92;64.76;95093.31;5035062;28;20226;-82
2022/06/22 05:53:10;;;;;;;9.25;5.72;;;;;;;23.94;64.91;95099.09;5034977;28;20238;-82
2022/06/22 05:55:45;;;;;;;5.70;4.25;;;;;;;24.11;64.21;95092.41;5035653;28;20201;-82
2022/06/22 05:58:19;;;;;;;6.18;4.32;;;;;;;24.29;63.80;95095.47;5035629;28;20186;-84
2022/06/22 06:00:48;;;;;;;7.32;3.28;;;;;;;24.36;63.73;95101.22;5039489;28;20261;-83
2022/06/22 06:03:29;;;;;;;7.53;3.75;;;;;;;24.34;63.36;95103.34;5040262;28;20237;-83
2022/06/22 06:05:59;;;;;;;8.93;3.75;;;;;;;24.23;63.70;95102.63;5040419;28;20202;-83
2022/06/22 06:08:36;;;;;;;7.80;3.83;;;;;;;24.18;63.75;95107.13;5040750;28;20209;-83
2022/06/22 06:11:04;;;;;;;8.40;3.78;;;;;;;24.05;64.10;95116.41;5041022;28;20237;-83
2022/06/22 06:13:35;;;;;;;5.50;3.35;;;;;;;24.02;64.08;95125.63;5041210;28;20330;-83
2022/06/22 06:16:07;;;;;;;7.60;3.60;;;;;;;24.15;64.53;95134.75;5039883;28;20763;-83
2022/06/22 06:18:39;;;;;;;14.50;11.02;;;;;;;24.24;64.99;95135.78;5040112;28;20244;-83
2022/06/22 06:21:11;;;;;;;13.98;8.25;;;;;;;24.31;64.99;95141.50;5037176;28;20214;-83
2022/06/22 06:23:43;;;;;;;11.70;6.68;;;;;;;24.25;66.49;95147.06;5038979;28;20296;-83
2022/06/22 06:29:04;;;;;;;11.77;8.40;;;;;;;24.04;68.53;95139.31;5038884;28;20279;-83
2022/06/22 06:31:40;;;;;;;8.38;5.22;;;;;;;24.08;67.93;95153.44;5039740;28;20241;-83
2022/06/22 06:34:16;;;;;;;8.75;4.20;;;;;;;23.99;67.45;95155.09;5038368;28;20252;-83
2022/06/22 06:36:52;;;;;;;9.63;4.07;;;;;;;23.98;66.85;95166.69;5038619;28;20205;-83
2022/06/22 06:39:24;;;;;;;9.50;3.80;;;;;;;23.98;67.44;95166.69;5038376;28;20205;-83
2022/06/22 06:42:04;;;;;;;10.57;4.07;;;;;;;23.91;68.17;95165.38;5038515;28;20647;-83
2022/06/22 06:44:34;;;;;;;6.60;4.05;;;;;;;23.84;68.95;95162.28;5038845;28;20244;-83
2022/06/22 06:47:05;;;;;;;6.43;3.75;;;;;;;23.83;68.73;95155.44;5038450;28;20218;-83
2022/06/22 06:49:37;;;;;;;6.80;3.67;;;;;;;23.84;68.49;95157.81;5038156;28;20594;-83
2022/06/22 06:52:12;;;;;;;9.98;4.35;;;;;;;23.71;69.63;95155.75;5034493;28;20218;-83
2022/06/22 06:54:44;;;;;;;6.13;3.58;;;;;;;23.74;69.54;95156.00;5038105;28;20881;-83
2022/06/22 06:57:14;;;;;;;8.48;3.70;;;;;;;23.56;71.19;95153.16;5037321;28;20217;-83
2022/06/22 06:59:42;;;;;;;7.70;3.65;;;;;;;23.49;72.00;95155.25;5039111;28;20209;-83
2022/06/22 07:02:15;;;;;;;10.90;4.13;;;;;;;23.56;71.35;95145.28;5036925;28;20713;-83
2022/06/22 07:04:45;;;;;;;6.80;3.78;;;;;;;23.60;70.95;95143.69;5039043;28;20229;-83
2022/06/22 07:07:23;;;;;;;7.13;3.70;;;;;;;23.72;70.05;95152.06;5037461;28;20206;-83
2022/06/22 07:09:53;;;;;;;8.18;3.85;;;;;;;23.70;68.88;95154.16;5038460;28;20702;-83
2022/06/22 07:12:27;;;;;;;9.73;3.47;;;;;;;23.75;68.75;95157.56;5035502;28;20229;-83
2022/06/22 07:14:54;;;;;;;8.30;3.70;;;;;;;23.79;68.64;95160.44;5037850;28;20255;-83
2022/06/22 07:17:24;;;;;;;11.90;3.72;;;;;;;23.83;69.05;95156.22;5039453;28;20206;-83
2022/06/22 07:19:56;;;;;;;9.88;3.63;;;;;;;23.89;68.41;95157.75;5038731;28;20634;-83
2022/06/22 07:22:28;;;;;;;7.88;3.80;;;;;;;23.88;68.87;95164.06;5037231;28;20240;-83
2022/06/22 07:25:02;;;;;;;8.90;3.38;;;;;;;23.93;68.34;95171.94;5038402;28;20773;-83
2022/06/22 07:27:34;;;;;;;19.60;16.08;;;;;;;23.95;68.41;95177.72;5037286;28;20209;-83
2022/06/22 07:30:04;;;;;;;19.13;16.08;;;;;;;23.96;68.94;95187.19;5036788;28;20232;-83
2022/06/22 07:32:39;;;;;;;12.63;8.27;;;;;;;24.00;69.44;95195.34;5026756;28;20226;-83
2022/06/22 07:35:16;;;;;;;7.43;4.43;;;;;;;24.05;68.60;95185.56;5038808;28;20208;-83
2022/06/22 07:37:56;;;;;;;11.50;4.68;;;;;;;24.05;68.33;95187.44;5038650;28;20269;-83
2022/06/22 07:40:25;;;;;;;7.40;3.90;;;;;;;24.06;67.87;95191.59;5038642;28;20224;-83
2022/06/22 07:42:53;;;;;;;6.78;3.45;;;;;;;24.02;68.21;95187.97;5038269;28;20237;-83
2022/06/22 07:45:21;;;;;;;7.50;3.83;;;;;;;24.05;67.68;95184.81;5040342;28;20201;-83
2022/06/22 07:47:54;;;;;;;6.90;3.80;;;;;;;23.98;65.99;95181.66;5043337;28;20206;-83
2022/06/22 07:50:26;;;;;;;11.05;3.65;;;;;;;23.99;65.67;95189.28;5043993;28;20222;-83
2022/06/22 07:52:57;;;;;;;8.02;4.15;;;;;;;24.02;65.80;95183.50;5042386;28;20230;-83
2022/06/22 07:55:35;;;;;;;8.52;3.50;;;;;;;24.06;66.10;95175.81;5041061;28;20605;-83
2022/06/22 07:58:18;;;;;;;11.63;3.35;;;;;;;24.10;65.60;95182.13;5043006;28;20229;-83
2022/06/22 08:00:48;;;;;;;7.82;3.58;;;;;;;24.14;65.92;95182.38;5041176;28;20228;-83
2022/06/22 08:03:28;;;;;;;6.03;3.53;;;;;;;24.13;65.95;95196.59;5042085;28;20244;-83
2022/06/22 08:06:01;;;;;;;7.93;3.80;;;;;;;24.16;66.03;95194.19;5044092;28;20252;-83
2022/06/22 08:08:32;;;;;;;7.55;3.63;;;;;;;24.14;66.71;95195.53;5042480;28;20198;-85
2022/06/22 08:11:04;;;;;;;5.55;3.55;;;;;;;24.13;66.77;95197.38;5042843;28;20589;-85
2022/06/22 08:13:34;;;;;;;7.13;3.65;;;;;;;24.18;67.39;95183.41;5042540;28;20648;-85
2022/06/22 08:16:06;;;;;;;10.80;3.78;;;;;;;24.15;66.83;95195.25;5043227;28;20210;-85
2022/06/22 08:18:32;;;;;;;9.15;4.00;;;;;;;24.15;66.85;95192.63;5042877;28;20260;-85
2022/06/22 08:21:00;;;;;;;9.65;4.65;;;;;;;24.17;66.45;95189.72;5043274;28;20206;-84
2022/06/22 08:23:32;;;;;;;8.05;3.67;;;;;;;24.13;67.07;95186.84;5041022;28;20245;-85
2022/06/22 08:26:01;;;;;;;10.57;3.78;;;;;;;24.16;67.10;95188.94;5041239;28;20260;-85
2022/06/22 08:28:29;;;;;;;7.43;4.10;;;;;;;24.21;66.76;95201.28;5041584;28;20661;-84
2022/06/22 08:30:57;;;;;;;7.53;3.80;;;;;;;24.20;67.28;95197.88;5040919;28;20246;-85
2022/06/22 08:33:29;;;;;;;8.07;3.50;;;;;;;24.26;66.84;95204.69;5040233;28;20233;-85
2022/06/22 08:36:00;;;;;;;9.68;4.07;;;;;;;24.27;67.19;95208.91;5040859;28;20260;-84
2022/06/22 08:38:33;;;;;;;7.55;4.80;;;;;;;24.22;65.78;95205.50;5041296;28;20685;-85
2022/06/22 08:41:06;;;;;;;10.27;4.13;;;;;;;24.16;66.17;95215.25;5040478;28;20202;-85
2022/06/22 08:43:43;;;;;;;8.45;3.95;;;;;;;23.99;65.56;95215.59;5041750;28;20238;-85
2022/06/22 08:46:41;;;;;;;7.80;3.50;;;;;;;24.03;66.44;95221.09;5041739;28;20206;-85
2022/06/22 08:49:39;;;;;;;11.50;4.50;;;;;;;24.07;67.14;95237.91;5039867;28;20305;-85
2022/06/22 08:52:31;;;;;;;10.00;4.38;;;;;;;24.08;67.56;95232.38;5029014;28;20640;-85
2022/06/22 08:55:17;;;;;;;9.68;4.10;;;;;;;24.07;67.68;95224.75;5040849;28;20202;-85
2022/06/22 08:58:01;;;;;;;8.43;4.00;;;;;;;24.17;67.97;95226.56;5040560;28;20206;-85
2022/06/22 09:00:38;;;;;;;9.88;4.30;;;;;;;24.18;67.65;95238.66;5041641;28;20208;-85
2022/06/22 09:03:29;;;;;;;10.05;3.90;;;;;;;24.20;66.48;95241.81;5042483;28;20626;-85
2022/06/22 09:06:12;;;;;;;9.20;4.38;;;;;;;24.29;66.45;95240.19;5041373;28;20237;-85
2022/06/22 09:09:05;;;;;;;10.00;4.03;;;;;;;24.33;67.61;95225.44;5034338;28;20735;-85
2022/06/22 09:11:38;;;;;;;10.93;4.28;;;;;;;24.39;66.85;95229.63;4996512;28;20725;-85
2022/06/22 09:14:22;;;;;;;6.13;4.20;;;;;;;24.36;67.55;95227.53;5035480;28;20260;-85
2022/06/22 09:17:04;;;;;;;7.85;4.22;;;;;;;24.35;67.94;95218.88;5040607;28;20240;-85
2022/06/22 09:19:45;;;;;;;7.38;4.10;;;;;;;24.44;67.00;95217.22;5039564;28;20209;-85
2022/06/22 09:22:16;;;;;;;6.65;4.30;;;;;;;24.47;66.51;95223.78;5038503;28;20241;-85
2022/06/22 09:24:58;;;;;;;9.13;4.10;;;;;;;24.50;65.47;95219.81;5040243;28;20238;-85
2022/06/22 09:27:43;;;;;;;10.18;4.20;;;;;;;24.57;64.73;95218.47;5039572;28;20202;-85
2022/06/22 09:30:28;;;;;;;10.98;4.40;;;;;;;24.51;65.16;95214.28;5038638;28;20214;-85
2022/06/22 09:33:09;;;;;;;7.38;4.10;;;;;;;24.52;64.77;95209.81;5039020;28;20233;-85
2022/06/22 09:35:57;;;;;;;5.97;4.15;;;;;;;24.53;65.76;95206.13;5039928;28;20238;-84
2022/06/22 09:38:41;;;;;;;13.23;4.75;;;;;;;24.56;65.38;95192.41;5039417;28;20290;-85
2022/06/22 09:41:18;;;;;;;5.82;4.18;;;;;;;24.41;65.43;95202.00;5037207;28;20213;-84
2022/06/22 09:44:18;;;;;;;9.20;4.75;;;;;;;24.48;64.75;95203.50;5037152;28;20229;-84
2022/06/22 09:47:14;;;;;;;10.60;5.13;;;;;;;24.51;65.21;95213.50;5022153;28;20202;-85
2022/06/22 09:50:13;;;;;;;10.18;4.65;;;;;;;24.58;65.66;95206.09;5037826;28;20202;-85
2022/06/22 09:52:58;;;;;;;7.63;4.72;;;;;;;24.59;66.51;95203.19;5037495;28;20256;-85
2022/06/22 09:56:22;;;;;;;9.45;4.88;;;;;;;24.58;65.32;95193.72;5037032;28;20202;-85
2022/06/22 09:59:25;;;;;;;8.40;4.57;;;;;;;24.51;65.96;95195.88;5037595;28;20266;-85
2022/06/22 10:02:01;;;;;;;8.98;4.47;;;;;;;24.53;65.27;95193.75;5033775;28;20244;-85
2022/06/22 10:05:16;;;;;;;10.05;4.75;;;;;;;24.58;65.09;95196.34;5035078;28;20209;-85
2022/06/22 10:07:54;;;;;;;11.02;4.97;;;;;;;24.70;65.26;95198.63;5018391;28;20696;-85
2022/06/22 10:10:32;;;;;;;8.90;4.57;;;;;;;24.76;65.16;95206.22;5036031;28;20324;-85
2022/06/22 10:13:11;;;;;;;9.55;4.63;;;;;;;24.79;65.54;95208.31;5039175;28;20725;-85
2022/06/22 10:15:57;;;;;;;8.77;4.70;;;;;;;24.82;66.27;95206.19;5039081;28;20202;-85
2022/06/22 10:18:45;;;;;;;11.07;5.20;;;;;;;24.78;67.92;95211.22;5039461;28;20202;-84
2022/06/22 10:21:23;;;;;;;11.25;5.20;;;;;;;24.84;67.22;95218.00;5039503;28;20207;-85
2022/06/22 10:24:09;;;;;;;9.35;4.72;;;;;;;24.89;67.34;95214.56;5039422;28;20296;-84
2022/06/22 10:26:48;;;;;;;20.02;15.20;;;;;;;24.82;67.15;95214.88;5039741;28;20206;-85
2022/06/22 10:29:33;;;;;;;15.50;12.90;;;;;;;24.79;66.69;95215.44;5040130;28;20206;-84
2022/06/22 10:32:21;;;;;;;12.35;5.80;;;;;;;24.88;66.18;95220.88;5039279;28;20648;-85
2022/06/22 10:35:01;;;;;;;10.82;5.63;;;;;;;24.81;65.91;95217.78;5039212;28;20209;-84
2022/06/22 10:37:44;;;;;;;10.15;5.85;;;;;;;24.75;65.51;95228.34;5039289;28;20182;-84
2022/06/22 10:46:24;;;;;;;7.82;5.45;;;;;;;24.63;66.33;95235.78;5019663;28;20202;-84
2022/06/22 10:49:29;;;;;;;10.52;5.45;;;;;;;24.57;66.92;95231.63;5017207;28;20336;-85
2022/06/22 10:52:17;;;;;;;8.25;5.70;;;;;;;24.58;66.92;95224.53;4985630;28;20234;-84
2022/06/22 10:55:03;;;;;;;6.80;5.30;;;;;;;24.52;67.52;95220.34;5028192;28;20225;-85
2022/06/22 10:58:13;;;;;;;9.82;5.53;;;;;;;24.50;67.80;95210.09;5035606;28;20268;-85
2022/06/22 11:00:52;;;;;;;10.63;5.72;;;;;;;24.46;67.50;95216.94;4954315;29;20292;-85
2022/06/22 11:04:00;;;;;;;18.45;16.40;;;;;;;24.48;68.42;95217.47;4953376;28;20229;-85
2022/06/22 11:06:47;;;;;;;16.20;13.85;;;;;;;24.50;67.36;95220.63;5022491;28;20280;-85
2022/06/22 11:09:29;;;;;;;10.88;8.23;;;;;;;24.47;68.14;95218.53;5034982;28;20206;-85
2022/06/22 11:12:22;;;;;;;12.27;6.25;;;;;;;24.40;68.95;95232.00;5033427;28;20221;-84
2022/06/22 11:15:16;;;;;;;7.85;5.82;;;;;;;24.40;69.46;95231.22;5031218;28;20206;-85
2022/06/22 11:18:08;;;;;;;11.52;6.25;;;;;;;24.43;69.60;95234.09;5002162;28;20249;-85
2022/06/22 11:20:49;;;;;;;8.52;5.75;;;;;;;24.44;69.60;95233.00;5013216;28;20199;-85
2022/06/22 11:23:34;;;;;;;9.32;5.70;;;;;;;24.43;69.48;95236.72;5012972;28;20300;-85
2022/06/22 11:32:33;;;;;;;8.07;5.75;;;;;;;24.41;69.95;95238.84;5029951;28;20233;-85
2022/06/22 11:35:56;;;;;;;11.90;6.45;;;;;;;24.37;69.66;95240.44;4988404;28;20229;-85
2022/06/22 11:38:44;;;;;;;28.83;25.90;;;;;;;24.37;68.77;95252.81;4972338;28;20204;-85
2022/06/22 11:41:26;;;;;;;14.38;10.45;;;;;;;24.35;69.08;95244.38;5025328;28;20221;-85
2022/06/22 11:44:18;;;;;;;12.20;6.78;;;;;;;24.39;68.84;95243.59;5034996;28;20252;-85
2022/06/22 11:46:50;;;;;;;12.48;6.43;;;;;;;24.43;68.43;95239.34;5037019;28;20261;-84
2022/06/22 11:49:29;;;;;;;11.48;6.15;;;;;;;24.44;68.47;95251.44;5036400;28;20206;-85
2022/06/22 11:52:19;;;;;;;11.13;6.32;;;;;;;24.50;69.40;95251.41;5035224;28;20709;-84
2022/06/22 11:55:20;;;;;;;8.77;5.82;;;;;;;24.54;68.70;95247.19;5035902;28;20198;-84
2022/06/22 11:58:22;;;;;;;7.13;6.13;;;;;;;24.53;69.74;95251.66;5034849;28;20202;-85
2022/06/22 12:01:03;;;;;;;9.95;6.07;;;;;;;24.53;68.04;95253.50;5034636;28;20201;-84
2022/06/22 12:03:48;;;;;;;10.40;6.35;;;;;;;24.58;67.97;95253.50;5035113;28;20222;-85
2022/06/22 12:06:38;;;;;;;11.15;5.80;;;;;;;24.58;67.31;95254.28;5031014;28;20206;-85
2022/06/22 12:09:18;;;;;;;10.18;4.70;;;;;;;24.56;67.43;95251.13;5028943;28;20214;-85
2022/06/22 12:12:02;;;;;;;9.48;5.15;;;;;;;24.58;66.35;95256.13;5036230;28;20280;-84
2022/06/22 12:17:39;;;;;;;7.78;4.80;;;;;;;24.71;65.45;95258.13;5036969;28;20189;-84
2022/06/22 12:20:17;;;;;;;9.60;5.10;;;;;;;24.72;65.76;95260.50;5034870;28;20771;-84
2022/06/22 12:22:55;;;;;;;8.57;4.88;;;;;;;24.82;64.94;95259.66;5033897;28;20280;-85
2022/06/22 12:25:49;;;;;;;11.48;5.03;;;;;;;24.90;65.28;95251.16;5036574;28;20198;-84
2022/06/22 12:28:33;;;;;;;6.82;5.40;;;;;;;25.02;65.33;95253.47;5035990;28;20198;-84
2022/06/22 12:31:10;;;;;;;12.65;6.90;;;;;;;25.12;64.97;95256.81;5035882;28;20217;-84
2022/06/22 12:33:41;;;;;;;9.25;5.05;;;;;;;25.25;64.68;95258.03;5038109;28;20233;-85
2022/06/22 12:36:14;;;;;;;9.95;5.53;;;;;;;25.28;65.28;95249.56;5036953;28;20256;-85
2022/06/22 12:38:45;;;;;;;9.50;5.20;;;;;;;25.27;64.58;95252.47;5037515;28;20224;-85